Torrey, Idaho
Current Conditions -  °F | °C
As of 2:55 AM on Sunday 26 Oct 2014 (Local Time) from KLLJ Reporting Station
Scattered Clouds Scattered Clouds  
Wind Chill: 44°   Ceiling: Unl
Heat Index: 44°   Visibility: 10mi
Dew Point: 35°   Wind: 0mph
Humidity: 71%   Direction: NA
Pressure: 29.86"   Gusts: NA
Location:  44.3069°N, 114.439°W
Report Text: KLLJ 260855Z AUTO 00000KT 10SM FEW065 SCT080 07/02 A2986 RMK AO2 SLP079 T00670017 55002
Loading
Personal Weather Stations






























Interactive Weather Map
Tropical Storm Tracking
New forecast layout! Learn more

10-Day Weather Forecast

Advertisements
Track Severe Weather on mobile